Time;durP1;ratioP1;P1;durP2;ratioP2;P2;SDS_P1;SDS_P2;PMS_P1;PMS_P2;Temp;Humidity;BMP_temperature;BMP_pressure;BME280_temperature;BME280_humidity;BME280_pressure;Samples;Min_cycle;Max_cycle;Signal;HPM_P1;HPM_P2
2023/10/05 00:01:24;;;;;;;8.80;2.47;;;359.30;2329.60;;;;;;5068991;28;20416;-57
2023/10/05 00:03:52;;;;;;;5.90;3.03;;;359.10;2329.60;;;;;;5061092;28;20028;-58
2023/10/05 00:06:25;;;;;;;7.57;3.65;;;359.10;2329.60;;;;;;5057914;28;20032;-57
2023/10/05 00:08:56;;;;;;;5.80;2.63;;;359.10;2329.60;;;;;;5057553;28;20036;-57
2023/10/05 00:11:24;;;;;;;6.28;2.88;;;359.10;2329.60;;;;;;5057502;28;20030;-57
2023/10/05 00:13:59;;;;;;;5.60;3.28;;;359.10;2329.60;;;;;;5057656;28;20380;-57
2023/10/05 00:16:36;;;;;;;7.70;3.22;;;359.10;2329.60;;;;;;5056677;28;20120;-58
2023/10/05 00:19:09;;;;;;;6.97;3.63;;;359.20;2329.60;;;;;;5057222;28;20053;-58
2023/10/05 00:21:35;;;;;;;5.15;3.30;;;359.20;2329.60;;;;;;5057705;28;20114;-58
2023/10/05 00:24:06;;;;;;;7.40;3.72;;;359.20;2329.60;;;;;;5057256;28;20426;-57
2023/10/05 00:26:36;;;;;;;6.57;2.95;;;359.10;2329.60;;;;;;5057794;28;20100;-56
2023/10/05 00:31:38;;;;;;;6.20;2.90;;;359.00;2329.60;;;;;;5057497;28;20021;-57
2023/10/05 00:34:04;;;;;;;5.93;3.55;;;358.80;2329.60;;;;;;5056485;28;20072;-58
2023/10/05 00:36:34;;;;;;;8.80;4.22;;;358.80;2329.60;;;;;;5070107;28;20097;-58
2023/10/05 00:39:02;;;;;;;7.03;2.75;;;358.70;2329.60;;;;;;5072768;28;20074;-58
2023/10/05 00:41:28;;;;;;;5.20;3.05;;;358.70;2329.60;;;;;;5072547;28;20078;-58
2023/10/05 00:43:55;;;;;;;7.00;2.65;;;358.70;2329.60;;;;;;5072383;28;20024;-58
2023/10/05 00:46:21;;;;;;;9.32;3.15;;;358.60;2329.60;;;;;;5072661;28;20036;-58
2023/10/05 00:54:40;;;;;;;8.23;2.85;;;358.80;2329.60;;;;;;5050275;28;20474;-58
2023/10/05 00:57:09;;;;;;;7.47;3.28;;;358.80;2329.60;;;;;;5049496;28;20748;-58
2023/10/05 00:59:36;;;;;;;5.65;3.13;;;358.90;2329.60;;;;;;5049769;28;20021;-58
2023/10/05 01:04:34;;;;;;;4.82;3.58;;;358.80;2329.60;;;;;;5049721;28;20017;-58
2023/10/05 01:07:26;;;;;;;7.93;3.28;;;358.70;2329.60;;;;;;5049626;28;20418;-58
2023/10/05 01:12:43;;;;;;;10.75;3.45;;;358.40;2329.60;;;;;;5049837;28;20145;-57
2023/10/05 01:15:15;;;;;;;4.45;2.78;;;358.40;2329.60;;;;;;5049817;28;20032;-57
2023/10/05 01:17:41;;;;;;;6.88;3.45;;;333.70;2329.60;;;;;;5049586;28;20033;-57
2023/10/05 01:20:22;;;;;;;7.38;3.13;;;358.40;2329.60;;;;;;5049288;28;20064;-58
2023/10/05 01:22:56;;;;;;;4.90;2.70;;;358.40;2329.60;;;;;;5062169;28;20037;-58
2023/10/05 01:25:22;;;;;;;4.78;2.85;;;333.70;2329.60;;;;;;5072152;28;20052;-58
2023/10/05 01:27:50;;;;;;;6.45;3.72;;;333.70;2329.60;;;;;;5071519;28;20064;-59
2023/10/05 01:30:16;;;;;;;8.18;3.75;;;333.70;2329.60;;;;;;5071570;28;20111;-56
2023/10/05 01:32:46;;;;;;;6.03;3.33;;;333.60;2329.60;;;;;;5071650;28;20032;-57
2023/10/05 01:35:13;;;;;;;7.72;2.90;;;333.50;2329.60;;;;;;5071824;28;20029;-58
2023/10/05 01:37:46;;;;;;;4.63;2.75;;;333.40;2329.60;;;;;;5071732;28;20029;-56
2023/10/05 01:42:46;;;;;;;;;;;333.10;2329.60;;;;;;5072264;28;20540;-55
2023/10/05 01:45:16;;;;;;;4.82;2.55;;;333.10;2329.60;;;;;;5071534;28;20346;-55
2023/10/05 01:47:45;;;;;;;5.70;2.80;;;333.10;2329.60;;;;;;5070445;28;20040;-55
2023/10/05 01:50:22;;;;;;;6.55;3.80;;;333.00;2329.60;;;;;;5071189;28;20390;-55
2023/10/05 01:52:56;;;;;;;8.25;4.07;;;333.00;2329.60;;;;;;5071291;28;20033;-56
2023/10/05 01:55:27;;;;;;;5.63;3.30;;;332.90;2329.60;;;;;;5071291;28;20024;-58
2023/10/05 01:57:53;;;;;;;6.30;3.28;;;332.90;2329.60;;;;;;5071341;28;20055;-57
2023/10/05 02:00:20;;;;;;;4.70;3.08;;;308.10;2304.00;;;;;;5071208;28;20054;-57
2023/10/05 02:02:48;;;;;;;6.57;3.03;;;308.10;2304.00;;;;;;5070956;28;20032;-57
2023/10/05 02:05:14;;;;;;;7.60;3.55;;;332.80;2329.60;;;;;;5071147;28;20025;-57
2023/10/05 02:07:40;;;;;;;10.27;4.05;;;332.80;2329.60;;;;;;5071052;28;20044;-57
2023/10/05 02:10:10;;;;;;;10.13;3.88;;;332.90;2329.60;;;;;;5070977;28;20021;-58
2023/10/05 02:12:36;;;;;;;5.32;3.33;;;308.10;2304.00;;;;;;5070814;28;20063;-57
2023/10/05 02:15:13;;;;;;;9.43;3.40;;;308.10;2304.00;;;;;;5071156;28;20016;-57
2023/10/05 02:17:42;;;;;;;7.45;3.40;;;308.10;2304.00;;;;;;5070900;28;20032;-57
2023/10/05 02:20:25;;;;;;;5.80;2.35;;;308.10;2304.00;;;;;;5070810;28;20141;-57
2023/10/05 02:22:51;;;;;;;5.20;3.10;;;308.10;2304.00;;;;;;5070875;28;20028;-58
2023/10/05 02:25:22;;;;;;;6.03;2.63;;;308.10;2304.00;;;;;;5070792;28;20029;-56
2023/10/05 02:27:48;;;;;;;5.78;2.63;;;332.90;2329.60;;;;;;5070724;28;20041;-57
2023/10/05 02:30:14;;;;;;;9.50;2.25;;;332.90;2329.60;;;;;;5070600;28;20016;-57
2023/10/05 02:32:44;;;;;;;5.28;2.75;;;332.90;2329.60;;;;;;5070905;28;20108;-56
2023/10/05 02:35:24;;;;;;;6.57;3.20;;;332.80;2329.60;;;;;;5070614;28;20417;-57
2023/10/05 02:37:52;;;;;;;4.18;2.50;;;308.10;2304.00;;;;;;5070310;28;20025;-56
2023/10/05 02:40:19;;;;;;;7.05;2.92;;;308.10;2304.00;;;;;;5070858;28;20043;-57
2023/10/05 02:42:47;;;;;;;7.82;3.08;;;308.10;2304.00;;;;;;5070276;28;20064;-56
2023/10/05 02:45:13;;;;;;;6.38;3.33;;;308.10;2304.00;;;;;;5070129;28;20035;-56
2023/10/05 02:47:39;;;;;;;6.05;2.78;;;308.10;2304.00;;;;;;5069991;28;20044;-56
2023/10/05 02:50:06;;;;;;;6.25;3.30;;;308.10;2304.00;;;;;;5070010;28;20123;-56
2023/10/05 02:52:33;;;;;;;5.97;2.50;;;332.80;2329.60;;;;;;5070273;28;20063;-56
2023/10/05 02:54:58;;;;;;;9.05;2.58;;;332.80;2329.60;;;;;;5069988;28;20474;-56
2023/10/05 02:57:25;;;;;;;6.22;2.40;;;332.80;2329.60;;;;;;5069896;28;20029;-56
2023/10/05 02:59:51;;;;;;;7.43;3.45;;;308.10;2304.00;;;;;;5068917;28;20021;-56
2023/10/05 03:02:18;;;;;;;4.72;2.95;;;308.10;2304.00;;;;;;5069492;28;20681;-57
2023/10/05 03:04:45;;;;;;;5.10;3.03;;;308.10;2304.00;;;;;;5069783;28;20025;-56
2023/10/05 03:07:17;;;;;;;7.85;3.50;;;308.10;2304.00;;;;;;5070004;28;20097;-56
2023/10/05 03:09:46;;;;;;;11.23;3.37;;;308.00;2304.00;;;;;;5070163;28;20417;-57
2023/10/05 03:12:12;;;;;;;4.78;2.28;;;307.90;2304.00;;;;;;5069588;28;20269;-56
2023/10/05 03:14:40;;;;;;;7.30;2.92;;;308.00;2304.00;;;;;;5069928;28;20090;-56
2023/10/05 03:17:12;;;;;;;5.75;2.47;;;307.90;2304.00;;;;;;5069400;28;20063;-56
2023/10/05 03:19:39;;;;;;;7.88;3.20;;;307.90;2304.00;;;;;;5069315;28;20052;-56
2023/10/05 03:22:07;;;;;;;7.47;2.97;;;307.90;2304.00;;;;;;5069386;28;20040;-57
2023/10/05 03:24:35;;;;;;;5.55;2.63;;;307.90;2304.00;;;;;;5069275;28;20028;-57
2023/10/05 03:27:03;;;;;;;5.15;2.58;;;307.90;2304.00;;;;;;5069687;28;20116;-56
2023/10/05 03:29:29;;;;;;;5.40;2.78;;;308.00;2304.00;;;;;;5069440;28;20039;-56
2023/10/05 03:32:13;;;;;;;10.40;2.85;;;308.10;2304.00;;;;;;5069504;28;20029;-56
2023/10/05 03:34:42;;;;;;;7.65;3.55;;;308.10;2304.00;;;;;;5069394;28;20028;-56
2023/10/05 03:37:12;;;;;;;6.85;3.03;;;332.90;2329.60;;;;;;5069451;28;20210;-56
2023/10/05 03:39:51;;;;;;;5.15;3.13;;;332.80;2329.60;;;;;;5069487;28;20078;-56
2023/10/05 03:42:17;;;;;;;5.55;3.08;;;332.80;2329.60;;;;;;5069161;28;20028;-58
2023/10/05 03:44:43;;;;;;;7.05;3.45;;;332.80;2329.60;;;;;;5069082;28;20031;-57
2023/10/05 03:47:11;;;;;;;6.88;3.30;;;332.80;2329.60;;;;;;5069016;28;20036;-56
2023/10/05 03:49:36;;;;;;;7.25;3.40;;;332.80;2329.60;;;;;;5068938;28;20108;-56
2023/10/05 03:52:06;;;;;;;5.35;3.35;;;332.90;2329.60;;;;;;5068990;28;20128;-56
2023/10/05 03:54:33;;;;;;;4.55;2.97;;;332.90;2329.60;;;;;;5067717;28;20521;-56
2023/10/05 03:57:10;;;;;;;5.60;3.03;;;333.00;2329.60;;;;;;5069315;28;20442;-56
2023/10/05 03:59:36;;;;;;;5.95;3.17;;;332.90;2329.60;;;;;;5068769;28;20366;-57
2023/10/05 04:02:05;;;;;;;5.85;3.17;;;332.90;2329.60;;;;;;5068909;28;20047;-56
2023/10/05 04:04:31;;;;;;;5.90;3.08;;;332.90;2329.60;;;;;;5068950;28;20028;-57
2023/10/05 04:06:58;;;;;;;6.10;3.05;;;332.90;2329.60;;;;;;5068840;28;20505;-57
2023/10/05 04:09:28;;;;;;;8.35;3.05;;;332.80;2329.60;;;;;;5068588;28;20040;-57
2023/10/05 04:11:54;;;;;;;5.85;3.08;;;332.80;2329.60;;;;;;5068322;28;20449;-58
2023/10/05 04:14:20;;;;;;;5.70;4.00;;;308.10;2304.00;;;;;;5069034;28;20028;-57
2023/10/05 04:16:48;;;;;;;7.75;3.97;;;307.80;2304.00;;;;;;5068632;28;20163;-57
2023/10/05 04:19:17;;;;;;;6.25;4.05;;;307.90;2304.00;;;;;;5068532;28;20083;-57
2023/10/05 04:21:46;;;;;;;7.72;3.88;;;307.80;2304.00;;;;;;5069126;28;20427;-57
2023/10/05 04:24:14;;;;;;;6.40;4.18;;;307.90;2304.00;;;;;;5068874;28;20024;-57
2023/10/05 04:26:44;;;;;;;5.80;3.35;;;307.90;2304.00;;;;;;5068814;28;20040;-57
2023/10/05 04:29:11;;;;;;;6.47;2.88;;;308.00;2304.00;;;;;;5067310;28;20379;-56
2023/10/05 04:31:37;;;;;;;6.40;3.53;;;308.00;2304.00;;;;;;5068387;28;20031;-57
2023/10/05 04:34:11;;;;;;;6.00;3.60;;;308.00;2304.00;;;;;;5068861;28;20021;-57
2023/10/05 04:36:38;;;;;;;8.68;4.22;;;308.00;2304.00;;;;;;5068802;28;20105;-57
2023/10/05 04:39:05;;;;;;;7.70;3.30;;;308.00;2304.00;;;;;;5068710;28;20070;-57
2023/10/05 04:41:33;;;;;;;6.72;3.40;;;307.90;2304.00;;;;;;5068575;28;20033;-57
2023/10/05 04:44:00;;;;;;;7.55;3.03;;;307.80;2304.00;;;;;;5068268;28;20021;-57
2023/10/05 04:46:28;;;;;;;6.32;3.58;;;307.90;2304.00;;;;;;5068510;28;20081;-57
2023/10/05 04:49:10;;;;;;;8.82;3.80;;;307.90;2304.00;;;;;;5068356;28;20032;-57
2023/10/05 04:51:38;;;;;;;4.60;3.05;;;307.90;2304.00;;;;;;5068364;28;20024;-56
2023/10/05 04:54:06;;;;;;;6.40;2.65;;;308.10;2304.00;;;;;;5068239;28;20484;-57
2023/10/05 04:56:40;;;;;;;5.38;3.00;;;308.10;2304.00;;;;;;5068673;28;20036;-57
2023/10/05 05:01:56;;;;;;;5.28;2.45;;;332.80;2329.60;;;;;;5068220;28;20043;-57
2023/10/05 05:04:52;;;;;;;6.90;3.00;;;332.90;2329.60;;;;;;5068370;28;20028;-56
2023/10/05 05:07:21;;;;;;;4.32;2.70;;;332.90;2329.60;;;;;;5068177;28;20032;-57
2023/10/05 05:09:50;;;;;;;6.15;3.40;;;332.90;2329.60;;;;;;5068405;28;20067;-56
2023/10/05 05:12:16;;;;;;;8.75;3.13;;;332.90;2329.60;;;;;;5068494;28;20104;-56
2023/10/05 05:14:44;;;;;;;5.82;3.10;;;333.10;2329.60;;;;;;5068336;28;20020;-57
2023/10/05 05:17:23;;;;;;;10.32;2.97;;;333.20;2329.60;;;;;;5068227;28;20170;-57
2023/10/05 05:19:52;;;;;;;9.55;4.47;;;333.30;2329.60;;;;;;5068147;28;20052;-57
2023/10/05 05:22:18;;;;;;;7.03;4.22;;;333.40;2329.60;;;;;;5068428;28;20040;-57
2023/10/05 05:24:45;;;;;;;13.93;8.63;;;333.50;2329.60;;;;;;5071411;28;20060;-57
2023/10/05 05:29:44;;;;;;;10.40;7.45;;;333.70;2329.60;;;;;;5072069;28;20115;-57
2023/10/05 05:32:10;;;;;;;9.30;7.72;;;358.40;2329.60;;;;;;5071623;28;20029;-57
2023/10/05 05:34:41;;;;;;;12.10;7.38;;;358.50;2329.60;;;;;;5071458;28;20501;-57
2023/10/05 05:37:14;;;;;;;9.60;6.20;;;358.70;2329.60;;;;;;5071860;28;20246;-57
2023/10/05 05:39:40;;;;;;;10.43;6.30;;;358.80;2329.60;;;;;;5071603;28;20474;-57
2023/10/05 05:42:18;;;;;;;10.55;6.10;;;358.90;2329.60;;;;;;5071315;28;20024;-60
2023/10/05 05:44:44;;;;;;;8.55;4.90;;;359.10;2329.60;;;;;;5071455;28;20025;-57
2023/10/05 05:47:11;;;;;;;6.88;4.95;;;359.10;2329.60;;;;;;5071298;28;20021;-57
2023/10/05 05:49:40;;;;;;;10.00;3.95;;;359.20;2329.60;;;;;;5071397;28;20039;-58
2023/10/05 05:52:10;;;;;;;9.20;3.83;;;359.10;2329.60;;;;;;5071210;28;20027;-58
2023/10/05 05:54:36;;;;;;;6.82;3.55;;;359.20;2329.60;;;;;;5071396;28;20052;-57
2023/10/05 05:57:08;;;;;;;7.70;5.07;;;384.00;2329.60;;;;;;5071239;28;20098;-57
2023/10/05 05:59:39;;;;;;;9.88;4.25;;;384.20;2329.60;;;;;;5071015;28;20031;-58
2023/10/05 06:02:09;;;;;;;4.85;3.65;;;384.40;2329.60;;;;;;5071213;28;20470;-57
2023/10/05 06:04:41;;;;;;;5.45;3.67;;;384.60;2329.60;;;;;;5070930;28;20048;-57
2023/10/05 06:07:13;;;;;;;7.07;4.15;;;435.30;2355.20;;;;;;5070956;28;20218;-57
2023/10/05 06:09:42;;;;;;;7.68;4.07;;;461.10;2380.80;;;;;;5071274;28;20118;-57
2023/10/05 06:12:11;;;;;;;21.40;12.75;;;487.20;2380.80;;;;;;5071049;28;20495;-57
2023/10/05 06:14:40;;;;;;;17.13;12.38;;;512.70;2380.80;;;;;;5071192;28;20052;-58
2023/10/05 06:17:07;;;;;;;13.43;9.50;;;538.50;2278.40;;;;;;5070914;28;20035;-57
2023/10/05 06:19:33;;;;;;;10.27;6.38;;;563.90;2201.60;;;;;;5070709;28;20045;-58
2023/10/05 06:22:01;;;;;;;11.57;6.60;;;589.50;2099.20;;;;;;5070809;28;20044;-58
2023/10/05 06:24:27;;;;;;;10.55;6.03;;;615.00;1971.20;;;;;;5070529;28;20105;-57
2023/10/05 06:26:53;;;;;;;5.70;5.13;;;640.50;1894.40;;;;;;5070910;28;20067;-58
2023/10/05 06:29:19;;;;;;;8.82;6.18;;;640.70;1843.20;;;;;;5071239;28;20033;-57
2023/10/05 06:31:44;;;;;;;10.35;4.93;;;640.90;1817.60;;;;;;5070742;28;20028;-60
2023/10/05 06:34:10;;;;;;;7.72;5.75;;;640.20;1843.20;;;;;;5070880;28;20029;-60
2023/10/05 06:36:40;;;;;;;8.50;4.90;;;665.70;1817.60;;;;;;5069948;28;20051;-59
2023/10/05 06:39:06;;;;;;;9.10;5.30;;;666.50;1740.80;;;;;;5060167;28;20459;-60
2023/10/05 06:41:34;;;;;;;8.07;5.13;;;666.50;1715.20;;;;;;5059171;28;20023;-60
2023/10/05 06:44:01;;;;;;;8.15;5.60;;;691.30;1715.20;;;;;;5061001;28;20029;-60
2023/10/05 06:46:27;;;;;;;7.53;6.00;;;691.50;1715.20;;;;;;5058840;28;20037;-60
2023/10/05 06:48:53;;;;;;;6.55;5.40;;;691.70;1689.60;;;;;;5058996;28;20509;-61
2023/10/05 06:51:25;;;;;;;6.90;5.43;;;666.00;1715.20;;;;;;5059273;28;20067;-60
2023/10/05 06:53:52;;;;;;;9.32;6.35;;;640.80;1740.80;;;;;;5067619;28;20081;-61
2023/10/05 06:56:18;;;;;;;9.00;6.28;;;666.00;1715.20;;;;;;5070104;28;20194;-59
2023/10/05 06:58:44;;;;;;;8.38;6.80;;;691.30;1689.60;;;;;;5070267;28;20036;-60
2023/10/05 07:01:10;;;;;;;9.52;6.82;;;691.90;1638.40;;;;;;5067120;28;20383;-61
2023/10/05 07:03:36;;;;;;;9.07;7.03;;;742.50;1612.80;;;;;;5069972;28;20101;-61
2023/10/05 07:06:04;;;;;;;9.52;7.90;;;743.30;1561.60;;;;;;5070046;28;20020;-61
2023/10/05 07:08:31;;;;;;;11.73;8.57;;;768.40;1510.40;;;;;;5070225;28;20032;-61
2023/10/05 07:10:57;;;;;;;11.43;8.10;;;794.10;1510.40;;;;;;5069813;28;20035;-61
2023/10/05 07:13:24;;;;;;;9.07;7.43;;;794.00;1510.40;;;;;;5066599;28;20021;-62
2023/10/05 07:15:50;;;;;;;10.57;7.05;;;819.30;1459.20;;;;;;5069969;28;20107;-62
2023/10/05 07:18:18;;;;;;;16.58;9.15;;;794.10;1459.20;;;;;;5069908;28;20494;-61
2023/10/05 07:20:44;;;;;;;10.25;7.50;;;768.60;1484.80;;;;;;5061041;28;20044;-63
2023/10/05 07:23:10;;;;;;;11.75;9.68;;;768.60;1484.80;;;;;;5062319;28;20044;-62
2023/10/05 07:25:37;;;;;;;16.50;8.90;;;742.50;1536.00;;;;;;5069682;28;20051;-63
2023/10/05 07:28:04;;;;;;;13.38;8.57;;;768.30;1484.80;;;;;;5066730;28;20040;-63
2023/10/05 07:30:30;;;;;;;13.38;8.07;;;793.70;1459.20;;;;;;5050015;28;20017;-62
2023/10/05 07:32:55;;;;;;;14.25;7.15;;;768.40;1484.80;;;;;;5052427;28;20369;-63
2023/10/05 07:35:21;;;;;;;12.57;7.20;;;794.50;1433.60;;;;;;5051940;28;20057;-62
2023/10/05 07:37:47;;;;;;;9.45;6.85;;;844.90;1356.80;;;;;;5049543;28;20070;-66
2023/10/05 07:40:13;;;;;;;10.25;6.93;;;820.10;1356.80;;;;;;5049611;28;20108;-62
2023/10/05 07:42:40;;;;;;;7.53;5.43;;;819.80;1331.20;;;;;;5049795;28;20060;-63
2023/10/05 07:45:13;;;;;;;9.40;5.47;;;819.30;1356.80;;;;;;5049126;28;20013;-62
2023/10/05 07:47:42;;;;;;;;;;;844.90;1356.80;;;;;;5049653;28;20029;-63
2023/10/05 07:50:10;;;;;;;7.88;6.13;;;845.00;1331.20;;;;;;5049365;28;19928;-62
2023/10/05 07:52:40;;;;;;;9.05;5.40;;;845.20;1305.60;;;;;;5049220;28;20025;-62
2023/10/05 07:55:06;;;;;;;12.75;6.13;;;870.80;1254.40;;;;;;5048959;28;20123;-62
2023/10/05 07:57:32;;;;;;;10.93;6.25;;;819.60;1305.60;;;;;;5049580;28;20032;-62
2023/10/05 07:59:58;;;;;;;10.45;5.85;;;768.50;1408.00;;;;;;5049245;28;20024;-64
2023/10/05 08:02:23;;;;;;;8.80;4.90;;;742.80;1433.60;;;;;;5049063;28;20036;-61
2023/10/05 08:04:49;;;;;;;11.50;5.28;;;742.90;1433.60;;;;;;5047954;28;20489;-62
2023/10/05 08:07:15;;;;;;;9.73;4.55;;;742.60;1459.20;;;;;;5049237;28;20029;-62
2023/10/05 08:09:44;;;;;;;7.63;4.75;;;717.10;1433.60;;;;;;5047727;28;20061;-62
2023/10/05 08:12:11;;;;;;;11.13;6.28;;;717.00;1459.20;;;;;;5049112;28;20467;-62
2023/10/05 08:14:37;;;;;;;9.93;4.63;;;717.10;1459.20;;;;;;5048949;28;20379;-62
2023/10/05 08:17:03;;;;;;;10.30;5.18;;;743.00;1433.60;;;;;;5049074;28;20163;-62
2023/10/05 08:19:29;;;;;;;11.75;6.47;;;794.00;1356.80;;;;;;5048806;28;20095;-61
2023/10/05 08:21:55;;;;;;;13.73;5.68;;;819.80;1305.60;;;;;;5048853;28;20194;-62
2023/10/05 08:24:23;;;;;;;10.07;5.78;;;819.50;1305.60;;;;;;5049093;28;20063;-62
2023/10/05 08:26:53;;;;;;;18.88;6.70;;;819.30;1305.60;;;;;;5049102;28;20511;-63
2023/10/05 08:29:22;;;;;;;9.18;5.20;;;819.80;1305.60;;;;;;5048984;28;20043;-63
2023/10/05 08:31:52;;;;;;;11.88;5.97;;;;;;;;;;5048996;28;20027;-64
2023/10/05 08:34:21;;;;;;;8.10;6.13;;;;;;;;;;5048582;28;20025;-63
2023/10/05 08:36:49;;;;;;;12.82;5.75;;;;;;;;;;5048748;28;20125;-62
2023/10/05 08:39:16;;;;;;;9.85;6.40;;;870.90;1254.40;;;;;;5048922;28;20014;-62
2023/10/05 08:41:42;;;;;;;16.35;6.95;;;870.90;1228.80;;;;;;5049085;28;20116;-62
2023/10/05 08:44:26;;;;;;;9.95;6.72;;;;;;;;;;5049270;28;20029;-64
2023/10/05 08:46:52;;;;;;;9.90;6.45;;;;;;;;;;5048384;28;20087;-63
2023/10/05 08:49:19;;;;;;;14.25;6.82;;;;;;;;;;5048716;28;20041;-63
2023/10/05 08:51:45;;;;;;;9.02;5.47;;;;;;;;;;5048752;28;20021;-64
2023/10/05 08:54:13;;;;;;;15.88;5.32;;;;;;;;;;5048941;28;20025;-62
2023/10/05 08:56:47;;;;;;;13.27;5.95;;;716.90;1459.20;;;;;;5049287;28;20104;-61
2023/10/05 08:59:16;;;;;;;6.82;5.75;;;691.70;1459.20;;;;;;5051700;28;20453;-63
2023/10/05 09:01:42;;;;;;;12.95;6.57;;;716.90;1433.60;;;;;;5052608;28;20028;-63
2023/10/05 09:07:08;;;;;;;9.90;5.43;;;716.90;1433.60;;;;;;5052736;28;20375;-64
2023/10/05 09:09:51;;;;;;;10.02;5.10;;;692.00;1459.20;;;;;;5050812;28;20043;-62
2023/10/05 09:12:46;;;;;;;9.55;5.82;;;691.80;1459.20;;;;;;5052314;28;20029;-63
2023/10/05 09:15:22;;;;;;;7.88;4.80;;;666.10;1510.40;;;;;;5052789;28;20072;-62
2023/10/05 09:17:57;;;;;;;10.70;5.15;;;666.20;1536.00;;;;;;5052417;28;20094;-62
2023/10/05 09:20:30;;;;;;;10.63;5.30;;;666.20;1510.40;;;;;;5052089;28;20445;-62
2023/10/05 09:22:57;;;;;;;10.18;4.88;;;666.00;1561.60;;;;;;5052140;28;20116;-63
2023/10/05 09:25:27;;;;;;;11.45;5.22;;;666.10;1536.00;;;;;;5051959;28;20029;-63
2023/10/05 09:28:09;;;;;;;6.70;3.70;;;666.00;1561.60;;;;;;5052486;28;20064;-62
2023/10/05 09:30:46;;;;;;;7.13;4.53;;;640.30;1561.60;;;;;;5051043;28;20029;-62
2023/10/05 09:33:18;;;;;;;12.52;5.38;;;615.10;1587.20;;;;;;5050681;28;20056;-63
2023/10/05 09:35:46;;;;;;;15.52;4.55;;;614.80;1638.40;;;;;;5051322;28;20045;-63
2023/10/05 09:38:17;;;;;;;9.57;5.18;;;615.30;1612.80;;;;;;5052010;28;20017;-62
2023/10/05 09:40:47;;;;;;;8.55;4.18;;;640.00;1612.80;;;;;;5052088;28;20033;-62
2023/10/05 09:43:18;;;;;;;9.05;5.38;;;640.40;1612.80;;;;;;5051883;28;20049;-61
2023/10/05 09:45:49;;;;;;;12.57;5.22;;;640.60;1612.80;;;;;;5051649;28;20438;-61
2023/10/05 09:48:19;;;;;;;8.70;4.90;;;640.50;1612.80;;;;;;5051661;28;20129;-61
2023/10/05 09:50:45;;;;;;;9.55;5.03;;;640.50;1612.80;;;;;;5051723;28;20029;-61
2023/10/05 09:53:17;;;;;;;7.43;4.80;;;640.40;1587.20;;;;;;5051615;28;20029;-61
2023/10/05 09:55:50;;;;;;;12.20;4.70;;;640.60;1587.20;;;;;;5051882;28;20021;-61
2023/10/05 09:58:18;;;;;;;10.35;4.95;;;640.40;1612.80;;;;;;5051329;28;20386;-62
2023/10/05 10:03:10;;;;;;;8.90;4.47;;;615.00;1638.40;;;;;;5051344;28;20375;-62
2023/10/05 10:05:52;;;;;;;17.08;5.47;;;615.30;1638.40;;;;;;5051389;28;20028;-63
2023/10/05 10:08:30;;;;;;;8.95;4.05;;;615.00;1664.00;;;;;;5050783;28;20045;-62
2023/10/05 10:11:06;;;;;;;11.13;4.65;;;589.70;1715.20;;;;;;5051179;28;20025;-63
2023/10/05 10:13:40;;;;;;;11.52;4.75;;;589.70;1715.20;;;;;;5051461;28;20044;-61
2023/10/05 10:16:39;;;;;;;;;;;589.70;1715.20;;;;;;5051229;28;20033;-61
2023/10/05 10:19:19;;;;;;;11.40;3.75;;;614.60;1715.20;;;;;;5008683;28;19914;-61
2023/10/05 10:21:57;;;;;;;6.28;4.43;;;614.70;1689.60;;;;;;5009191;28;20036;-62
2023/10/05 10:24:28;;;;;;;11.25;4.70;;;589.70;1740.80;;;;;;5009122;28;20026;-61
2023/10/05 10:27:11;;;;;;;11.50;4.78;;;589.60;1740.80;;;;;;5008921;28;20029;-61
2023/10/05 10:29:43;;;;;;;;;;;589.40;1792.00;;;;;;5009407;28;20125;-61
2023/10/05 10:32:20;;;;;;;9.90;4.22;;;589.20;1766.40;;;;;;5009083;28;20360;-61
2023/10/05 10:34:49;;;;;;;10.80;4.78;;;589.00;1817.60;;;;;;5008776;28;20026;-60
2023/10/05 10:37:34;;;;;;;9.23;5.38;;;588.90;1817.60;;;;;;5008835;28;20452;-60
2023/10/05 10:40:00;;;;;;;8.43;4.00;;;564.10;1817.60;;;;;;5008584;28;20113;-62
2023/10/05 10:43:06;;;;;;;10.88;4.45;;;589.10;1792.00;;;;;;5008595;28;20121;-59
2023/10/05 10:45:33;;;;;;;7.18;4.25;;;589.20;1792.00;;;;;;5008577;28;20030;-62
2023/10/05 10:48:00;;;;;;;7.45;3.58;;;589.30;1792.00;;;;;;5008542;28;20042;-62
2023/10/05 10:50:35;;;;;;;10.10;4.57;;;589.40;1792.00;;;;;;5008422;28;20026;-63
2023/10/05 10:53:16;;;;;;;8.57;4.70;;;589.40;1792.00;;;;;;5008613;28;20033;-62
2023/10/05 10:55:52;;;;;;;11.85;5.55;;;589.40;1817.60;;;;;;5034418;28;20039;-60
2023/10/05 10:58:24;;;;;;;10.38;5.55;;;589.40;1817.60;;;;;;5050198;28;20059;-63
2023/10/05 11:00:59;;;;;;;16.38;6.22;;;589.20;1817.60;;;;;;5050607;28;20361;-61
2023/10/05 11:03:30;;;;;;;8.55;5.07;;;589.00;1843.20;;;;;;5050105;28;20100;-61
2023/10/05 11:05:58;;;;;;;11.10;5.55;;;589.20;1817.60;;;;;;5050136;28;20467;-61
2023/10/05 11:08:24;;;;;;;10.77;4.57;;;589.20;1817.60;;;;;;5050114;28;20572;-61
2023/10/05 11:13:56;;;;;;;8.00;4.03;;;588.90;1868.80;;;;;;5008057;28;20088;-61
2023/10/05 11:16:43;;;;;;;9.27;4.05;;;589.30;1843.20;;;;;;5007941;28;20447;-61
2023/10/05 11:19:14;;;;;;;11.52;4.20;;;589.30;1843.20;;;;;;5007900;28;20572;-65
2023/10/05 11:21:46;;;;;;;5.57;4.07;;;589.40;1868.80;;;;;;5007537;28;20049;-60
2023/10/05 11:24:16;;;;;;;10.93;4.60;;;589.00;1843.20;;;;;;5007974;28;20034;-63
2023/10/05 11:29:28;;;;;;;10.43;5.43;;;589.40;1868.80;;;;;;5007984;28;20041;-61
2023/10/05 11:32:10;;;;;;;9.07;4.93;;;589.10;1868.80;;;;;;5008001;28;20073;-60
2023/10/05 11:34:39;;;;;;;9.80;4.88;;;589.20;1868.80;;;;;;5007827;28;20393;-60
2023/10/05 11:37:16;;;;;;;13.43;4.95;;;589.20;1894.40;;;;;;5007977;28;20037;-61
2023/10/05 11:39:50;;;;;;;13.82;4.50;;;589.00;1894.40;;;;;;5007676;28;20026;-60
2023/10/05 11:42:26;;;;;;;8.30;5.28;;;589.40;1868.80;;;;;;5007697;28;20026;-60
2023/10/05 11:44:59;;;;;;;10.98;5.10;;;589.20;1894.40;;;;;;5007709;28;20523;-62
2023/10/05 11:47:32;;;;;;;9.90;4.28;;;589.40;1868.80;;;;;;5007321;28;20175;-61
2023/10/05 11:50:06;;;;;;;10.43;4.78;;;589.50;1868.80;;;;;;5021481;28;20041;-63
2023/10/05 11:52:31;;;;;;;10.23;5.28;;;589.40;1868.80;;;;;;5049567;28;20017;-63
2023/10/05 11:54:57;;;;;;;10.05;4.45;;;589.40;1894.40;;;;;;5049422;28;20052;-64
2023/10/05 11:57:23;;;;;;;12.50;4.82;;;589.40;1894.40;;;;;;5049562;28;20088;-62
2023/10/05 11:59:49;;;;;;;7.72;4.32;;;589.40;1894.40;;;;;;5049131;28;20029;-61
2023/10/05 12:02:17;;;;;;;14.20;5.25;;;589.20;1894.40;;;;;;5049369;28;20025;-61
2023/10/05 12:04:43;;;;;;;8.13;4.63;;;589.20;1894.40;;;;;;5049332;28;20021;-60
2023/10/05 12:07:12;;;;;;;10.60;4.65;;;589.50;1894.40;;;;;;5048862;28;20025;-63
2023/10/05 12:09:43;;;;;;;8.02;4.10;;;589.50;1894.40;;;;;;5047639;28;20430;-60
2023/10/05 12:12:13;;;;;;;10.77;4.68;;;589.60;1894.40;;;;;;5049031;28;20032;-60
2023/10/05 12:14:40;;;;;;;9.55;4.53;;;589.60;1868.80;;;;;;5049097;28;20029;-61
2023/10/05 12:17:07;;;;;;;11.38;4.82;;;589.70;1868.80;;;;;;5048951;28;20033;-60
2023/10/05 12:19:35;;;;;;;7.53;5.18;;;589.30;1894.40;;;;;;5049124;28;20056;-61
2023/10/05 12:22:01;;;;;;;10.35;4.82;;;589.60;1868.80;;;;;;5049057;28;20374;-60
2023/10/05 12:24:30;;;;;;;12.63;5.05;;;589.60;1894.40;;;;;;5048926;28;20036;-60
2023/10/05 12:26:58;;;;;;;7.88;4.35;;;589.70;1894.40;;;;;;5048973;28;20078;-60
2023/10/05 12:29:24;;;;;;;10.55;4.55;;;589.60;1894.40;;;;;;5045652;28;20032;-60
2023/10/05 12:31:50;;;;;;;10.20;6.22;;;589.60;1868.80;;;;;;5048943;28;20398;-61
2023/10/05 12:34:16;;;;;;;14.10;5.43;;;589.50;1894.40;;;;;;5053847;28;20089;-61
2023/10/05 12:36:49;;;;;;;11.10;5.30;;;589.60;1894.40;;;;;;5053852;28;20380;-61
2023/10/05 12:39:17;;;;;;;;;;;589.70;1894.40;;;;;;5054505;28;20044;-60
2023/10/05 12:41:49;;;;;;;7.78;4.10;;;589.70;1868.80;;;;;;5053633;28;19939;-61
2023/10/05 12:44:15;;;;;;;10.70;5.43;;;589.60;1920.00;;;;;;5053752;28;20024;-61
2023/10/05 12:46:42;;;;;;;7.45;5.00;;;589.70;1920.00;;;;;;5053789;28;20120;-62
2023/10/05 12:49:08;;;;;;;9.27;4.63;;;589.70;1920.00;;;;;;5054017;28;20051;-60
2023/10/05 12:51:36;;;;;;;12.02;4.57;;;589.70;1920.00;;;;;;5053939;28;20107;-61
2023/10/05 12:54:48;;;;;;;6.65;4.57;;;614.50;1920.00;;;;;;5053995;28;20675;-60
2023/10/05 12:56:50;;;;;;;9.18;4.88;;;589.70;1894.40;;;;;;5045967;28;20033;-60
2023/10/05 12:59:18;;;;;;;7.32;4.60;;;589.60;1920.00;;;;;;5053762;28;20025;-61
2023/10/05 13:01:46;;;;;;;11.05;5.22;;;589.50;1920.00;;;;;;5053723;28;20387;-63
2023/10/05 13:04:12;;;;;;;7.22;4.95;;;589.40;1920.00;;;;;;5053784;28;20507;-64